Gardiner, Iowa
Current Conditions -  °F | °C
As of 6:15 AM on Monday 26 Jan 2015 (Local Time) from KBNW Reporting Station
Overcast Overcast  
Wind Chill: 25°   Ceiling: 1900
Heat Index: 32°   Visibility: 10mi
Dew Point: 30°   Wind: 8mph
Humidity: 93%   Direction: 220°SW
Pressure: 29.88"   Gusts: NA
Location:  41.8185°N, 93.9933°W
Report Text: KBNW 261215Z AUTO 22007KT 10SM SCT009 BKN019 OVC060 M00/M01 A2988 RMK AO2
Loading
Personal Weather Stations






























Interactive Weather Map New forecast layout! Learn more

10-Day Weather Forecast

Advertisements
Track Severe Weather on mobile